Time;durP1;ratioP1;P1;durP2;ratioP2;P2;SDS_P1;SDS_P2;PMS_P1;PMS_P2;Temp;Humidity;BMP_temperature;BMP_pressure;BME280_temperature;BME280_humidity;BME280_pressure;Samples;Min_cycle;Max_cycle;Signal;HPM_P1;HPM_P2
2022/06/27 00:00:55;;;;;;;6.20;5.80;;;;;;;;;;5016969;28;20037;-77
2022/06/27 00:03:21;;;;;;;6.03;5.53;;;;;;;;;;5020811;28;20505;-77
2022/06/27 00:05:46;;;;;;;6.78;6.28;;;;;;;;;;5015298;28;20037;-77
2022/06/27 00:08:12;;;;;;;5.38;5.07;;;;;;;;;;5015227;28;20033;-77
2022/06/27 00:10:39;;;;;;;5.78;5.38;;;;;;;;;;5018410;28;20109;-77
2022/06/27 00:13:05;;;;;;;5.70;5.20;;;;;;;;;;5016463;28;20053;-77
2022/06/27 00:15:31;;;;;;;9.10;5.70;;;;;;;;;;5021773;28;20037;-77
2022/06/27 00:17:57;;;;;;;5.50;5.20;;;;;;;;;;5020017;28;20034;-78
2022/06/27 00:20:24;;;;;;;5.40;5.00;;;;;;;;;;5020226;28;20034;-76
2022/06/27 00:22:51;;;;;;;5.65;5.22;;;;;;;;;;5019938;28;20125;-77
2022/06/27 00:25:16;;;;;;;5.38;4.90;;;;;;;;;;5022173;28;20099;-77
2022/06/27 00:27:42;;;;;;;5.32;4.97;;;;;;;;;;5019293;28;20425;-77
2022/06/27 00:30:08;;;;;;;5.45;5.13;;;;;;;;;;5012656;28;20037;-78
2022/06/27 00:32:34;;;;;;;5.70;5.00;;;;;;;;;;5018743;28;20107;-77
2022/06/27 00:35:00;;;;;;;5.72;5.22;;;;;;;;;;5019797;28;20489;-76
2022/06/27 00:37:26;;;;;;;5.75;5.25;;;;;;;;;;5021109;28;20565;-77
2022/06/27 00:39:51;;;;;;;8.65;5.28;;;;;;;;;;5018881;28;20033;-76
2022/06/27 00:42:17;;;;;;;5.82;5.32;;;;;;;;;;5013616;28;20041;-76
2022/06/27 00:44:43;;;;;;;6.20;5.60;;;;;;;;;;5022536;28;20034;-77
2022/06/27 00:47:12;;;;;;;6.22;5.72;;;;;;;;;;5018805;28;20037;-77
2022/06/27 00:49:38;;;;;;;8.23;7.45;;;;;;;;;;5021931;28;20066;-77
2022/06/27 00:52:07;;;;;;;9.38;8.40;;;;;;;;;;5023163;28;20401;-77
2022/06/27 00:54:34;;;;;;;9.70;9.00;;;;;;;;;;5019443;28;20038;-76
2022/06/27 00:57:00;;;;;;;8.73;8.23;;;;;;;;;;5020226;28;20053;-76
2022/06/27 00:59:26;;;;;;;9.02;8.13;;;;;;;;;;5029477;28;20034;-76
2022/06/27 01:01:51;;;;;;;8.55;8.05;;;;;;;;;;5029347;28;20029;-76
2022/06/27 01:04:17;;;;;;;12.05;8.50;;;;;;;;;;5029694;28;20074;-76
2022/06/27 01:06:43;;;;;;;9.93;9.25;;;;;;;;;;5019441;28;20038;-76
2022/06/27 01:09:08;;;;;;;80.38;11.50;;;;;;;;;;5009569;28;20675;-75
2022/06/27 01:11:34;;;;;;;58.45;12.20;;;;;;;;;;5018499;28;20041;-75
2022/06/27 01:14:00;;;;;;;70.68;11.73;;;;;;;;;;5022761;28;20038;-75
2022/06/27 01:16:26;;;;;;;77.13;13.65;;;;;;;;;;4998992;28;20572;-77
2022/06/27 01:18:52;;;;;;;55.30;11.85;;;;;;;;;;5019316;28;20159;-77
2022/06/27 01:21:25;;;;;;;140.88;14.52;;;;;;;;;;5014287;28;20116;-76
2022/06/27 01:23:55;;;;;;;11.63;10.93;;;;;;;;;;5019225;28;20048;-77
2022/06/27 01:26:24;;;;;;;11.05;10.35;;;;;;;;;;5029488;28;20084;-77
2022/06/27 01:28:52;;;;;;;10.57;9.90;;;;;;;;;;5013016;28;20095;-77
2022/06/27 01:31:18;;;;;;;10.90;10.10;;;;;;;;;;5014575;28;20063;-76
2022/06/27 01:33:44;;;;;;;10.57;9.98;;;;;;;;;;5020771;28;20033;-77
2022/06/27 01:38:55;;;;;;;11.02;10.13;;;;;;;;;;5023401;28;20038;-76
2022/06/27 01:41:22;;;;;;;10.98;10.18;;;;;;;;;;5018613;28;20100;-76
2022/06/27 01:43:48;;;;;;;10.13;9.32;;;;;;;;;;5015075;28;20037;-76
2022/06/27 01:46:15;;;;;;;10.18;9.52;;;;;;;;;;5020107;28;20601;-76
2022/06/27 01:48:41;;;;;;;10.43;9.77;;;;;;;;;;5018333;28;20037;-77
2022/06/27 01:51:08;;;;;;;10.27;9.57;;;;;;;;;;5005713;28;20041;-76
2022/06/27 01:53:36;;;;;;;10.80;9.85;;;;;;;;;;5014914;28;20033;-76
2022/06/27 01:56:02;;;;;;;10.63;9.93;;;;;;;;;;5021840;28;20122;-76
2022/06/27 01:58:31;;;;;;;10.82;9.88;;;;;;;;;;5022997;28;20184;-76
2022/06/27 02:00:58;;;;;;;10.40;9.70;;;;;;;;;;4997093;28;20061;-76
2022/06/27 02:03:24;;;;;;;10.48;9.75;;;;;;;;;;5009572;28;20061;-76
2022/06/27 02:05:51;;;;;;;10.43;9.40;;;;;;;;;;5011129;28;20033;-76
2022/06/27 02:08:21;;;;;;;10.43;9.57;;;;;;;;;;5016138;28;20113;-76
2022/06/27 02:10:49;;;;;;;10.75;9.98;;;;;;;;;;5014884;28;20041;-76
2022/06/27 02:13:15;;;;;;;10.40;9.40;;;;;;;;;;5015504;28;20559;-76
2022/06/27 02:16:05;;;;;;;11.00;10.30;;;;;;;;;;5018513;28;20462;-76
2022/06/27 02:18:32;;;;;;;11.20;10.25;;;;;;;;;;5013243;28;20494;-76
2022/06/27 02:20:58;;;;;;;10.80;10.10;;;;;;;;;;5011631;28;20111;-76
2022/06/27 02:23:24;;;;;;;10.55;9.85;;;;;;;;;;5017337;28;20048;-76
2022/06/27 02:25:52;;;;;;;10.65;10.05;;;;;;;;;;5016536;28;20116;-77
2022/06/27 02:28:22;;;;;;;11.10;10.25;;;;;;;;;;5013081;28;20049;-76
2022/06/27 02:30:48;;;;;;;10.52;9.93;;;;;;;;;;5010270;28;20080;-77
2022/06/27 02:33:14;;;;;;;10.50;9.73;;;;;;;;;;5017648;28;20038;-77
2022/06/27 02:35:40;;;;;;;10.65;9.93;;;;;;;;;;5017612;28;20044;-77
2022/06/27 02:38:10;;;;;;;10.60;10.00;;;;;;;;;;5017978;28;20026;-77
2022/06/27 02:40:40;;;;;;;10.70;10.00;;;;;;;;;;5011637;28;20037;-77
2022/06/27 02:43:08;;;;;;;10.90;10.10;;;;;;;;;;5018818;28;20034;-77
2022/06/27 02:45:35;;;;;;;10.93;10.18;;;;;;;;;;5016099;28;20135;-77
2022/06/27 02:48:02;;;;;;;11.05;10.30;;;;;;;;;;5009584;28;20042;-77
2022/06/27 02:50:31;;;;;;;11.30;10.40;;;;;;;;;;5018843;28;20034;-77
2022/06/27 02:53:02;;;;;;;10.52;9.82;;;;;;;;;;5020422;28;20451;-77
2022/06/27 02:55:33;;;;;;;10.90;10.20;;;;;;;;;;5036109;28;20038;-77
2022/06/27 02:58:03;;;;;;;10.95;10.25;;;;;;;;;;5025446;28;20046;-77
2022/06/27 03:00:33;;;;;;;10.82;9.95;;;;;;;;;;5021290;28;20500;-77
2022/06/27 03:03:03;;;;;;;11.10;10.30;;;;;;;;;;5017927;28;20120;-77
2022/06/27 03:05:57;;;;;;;11.45;10.60;;;;;;;;;;5018220;28;20091;-77
2022/06/27 03:08:22;;;;;;;11.35;10.25;;;;;;;;;;5021835;28;20042;-78
2022/06/27 03:10:48;;;;;;;11.50;10.52;;;;;;;;;;5017452;28;20044;-77
2022/06/27 03:13:15;;;;;;;11.00;10.20;;;;;;;;;;5021528;28;20584;-77
2022/06/27 03:15:41;;;;;;;11.18;10.23;;;;;;;;;;5022008;28;20033;-77
2022/06/27 03:18:11;;;;;;;11.27;10.38;;;;;;;;;;5021812;28;20437;-77
2022/06/27 03:20:57;;;;;;;11.07;10.38;;;;;;;;;;5029796;28;20558;-78
2022/06/27 03:23:36;;;;;;;;;;;;;;;;;;5021025;28;20397;-76
2022/06/27 03:26:02;;;;;;;10.88;9.98;;;;;;;;;;5025446;28;19917;-78
2022/06/27 03:28:33;;;;;;;10.88;10.18;;;;;;;;;;5022219;28;20041;-77
2022/06/27 03:31:01;;;;;;;11.20;10.20;;;;;;;;;;5021808;28;20050;-77
2022/06/27 03:33:29;;;;;;;10.52;9.82;;;;;;;;;;5018648;28;20448;-77
2022/06/27 03:36:05;;;;;;;11.18;10.35;;;;;;;;;;5018435;28;20030;-78
2022/06/27 03:38:31;;;;;;;11.43;10.57;;;;;;;;;;5021803;28;20097;-77
2022/06/27 03:40:58;;;;;;;11.38;10.55;;;;;;;;;;5017596;28;20060;-77
2022/06/27 03:43:24;;;;;;;12.13;11.13;;;;;;;;;;5020107;28;20068;-77
2022/06/27 03:45:50;;;;;;;11.80;10.82;;;;;;;;;;5020260;28;20462;-77
2022/06/27 03:51:22;;;;;;;12.10;10.90;;;;;;;;;;5014642;28;20078;-77
2022/06/27 03:53:47;;;;;;;12.75;11.57;;;;;;;;;;5013089;28;20088;-77
2022/06/27 03:56:13;;;;;;;13.35;12.07;;;;;;;;;;5019913;28;20034;-77
2022/06/27 03:58:39;;;;;;;12.93;11.82;;;;;;;;;;5017497;28;20045;-78
2022/06/27 04:01:05;;;;;;;12.68;11.60;;;;;;;;;;5023340;28;20029;-77
2022/06/27 04:03:31;;;;;;;13.38;12.35;;;;;;;;;;5026306;28;20038;-77
2022/06/27 04:06:03;;;;;;;13.68;12.48;;;;;;;;;;5024902;28;20038;-77
2022/06/27 04:08:29;;;;;;;13.30;12.20;;;;;;;;;;5022593;28;20127;-77
2022/06/27 04:10:56;;;;;;;13.38;12.10;;;;;;;;;;5027787;28;20040;-77
2022/06/27 04:13:26;;;;;;;14.25;12.95;;;;;;;;;;5019654;28;20120;-78
2022/06/27 04:16:20;;;;;;;13.80;12.55;;;;;;;;;;5023740;28;20029;-78
2022/06/27 04:19:18;;;;;;;13.77;12.68;;;;;;;;;;5019033;28;20048;-78
2022/06/27 04:21:46;;;;;;;14.33;12.57;;;;;;;;;;5010981;28;20616;-78
2022/06/27 04:24:32;;;;;;;13.55;12.45;;;;;;;;;;5025316;28;20409;-78
2022/06/27 04:26:58;;;;;;;13.55;12.40;;;;;;;;;;5021928;28;20494;-78
2022/06/27 04:29:26;;;;;;;13.50;12.30;;;;;;;;;;5014447;28;20045;-78
2022/06/27 04:31:51;;;;;;;13.90;11.77;;;;;;;;;;5023900;28;20065;-78
2022/06/27 04:34:18;;;;;;;13.15;12.07;;;;;;;;;;5016928;28;20115;-77
2022/06/27 04:36:46;;;;;;;12.57;11.68;;;;;;;;;;5014839;28;20040;-77
2022/06/27 04:39:19;;;;;;;13.32;11.48;;;;;;;;;;5018413;28;20057;-77
2022/06/27 04:41:58;;;;;;;16.83;13.20;;;;;;;;;;5023475;28;20041;-77
2022/06/27 04:44:25;;;;;;;12.27;11.38;;;;;;;;;;5018064;28;20049;-78
2022/06/27 04:46:52;;;;;;;12.30;11.35;;;;;;;;;;5016728;28;20033;-77
2022/06/27 04:49:36;;;;;;;12.45;11.40;;;;;;;;;;5010500;28;20041;-78
2022/06/27 04:52:06;;;;;;;11.90;11.00;;;;;;;;;;5017599;28;20037;-77
2022/06/27 04:54:34;;;;;;;11.95;10.98;;;;;;;;;;5009045;28;20489;-77
2022/06/27 04:57:00;;;;;;;12.43;11.27;;;;;;;;;;5016886;28;20029;-77
2022/06/27 04:59:30;;;;;;;12.50;11.38;;;;;;;;;;5010664;28;20048;-76
2022/06/27 05:02:07;;;;;;;12.13;11.13;;;;;;;;;;5030639;28;20041;-77
2022/06/27 05:04:32;;;;;;;11.55;10.73;;;;;;;;;;5027427;28;20052;-76
2022/06/27 05:06:58;;;;;;;11.05;10.18;;;;;;;;;;5028418;28;20404;-77
2022/06/27 05:09:24;;;;;;;11.10;10.32;;;;;;;;;;5029887;28;20152;-76
2022/06/27 05:11:50;;;;;;;10.77;9.98;;;;;;;;;;5014275;28;20034;-77
2022/06/27 05:14:16;;;;;;;10.60;9.70;;;;;;;;;;5016084;28;20052;-78
2022/06/27 05:16:50;;;;;;;10.52;9.63;;;;;;;;;;5027745;28;20033;-78
2022/06/27 05:19:16;;;;;;;10.25;9.55;;;;;;;;;;5026382;28;20044;-75
2022/06/27 05:21:44;;;;;;;10.43;9.82;;;;;;;;;;5009862;28;20030;-75
2022/06/27 05:24:11;;;;;;;10.32;9.63;;;;;;;;;;5016814;28;20037;-76
2022/06/27 05:26:37;;;;;;;10.35;9.48;;;;;;;;;;5029126;28;20034;-76
2022/06/27 05:29:02;;;;;;;10.70;9.85;;;;;;;;;;5031897;28;20383;-75
2022/06/27 05:31:29;;;;;;;10.20;9.35;;;;;;;;;;5029700;28;20616;-76
2022/06/27 05:33:55;;;;;;;10.50;9.80;;;;;;;;;;5023175;28;20079;-75
2022/06/27 05:36:21;;;;;;;10.10;9.38;;;;;;;;;;5028189;28;20435;-75
2022/06/27 05:38:48;;;;;;;10.45;9.50;;;;;;;;;;5026772;28;20052;-76
2022/06/27 05:41:14;;;;;;;10.30;9.50;;;;;;;;;;5011816;28;20087;-76
2022/06/27 05:43:40;;;;;;;10.25;9.57;;;;;;;;;;5008196;28;20092;-76
2022/06/27 05:46:06;;;;;;;10.15;9.50;;;;;;;;;;5023458;28;20468;-76
2022/06/27 05:48:55;;;;;;;10.38;9.70;;;;;;;;;;5028650;28;20044;-76
2022/06/27 05:51:28;;;;;;;10.13;9.35;;;;;;;;;;5025113;28;20034;-75
2022/06/27 05:53:56;;;;;;;10.43;9.63;;;;;;;;;;5017914;28;20092;-74
2022/06/27 05:56:22;;;;;;;10.45;9.70;;;;;;;;;;5027313;28;20021;-75
2022/06/27 05:58:49;;;;;;;10.68;9.80;;;;;;;;;;5013428;28;20029;-75
2022/06/27 06:01:16;;;;;;;11.10;10.10;;;;;;;;;;5011077;28;20045;-75
2022/06/27 06:03:43;;;;;;;10.05;9.25;;;;;;;;;;5025439;28;20038;-76
2022/06/27 06:06:10;;;;;;;10.75;9.75;;;;;;;;;;5019263;28;20518;-75
2022/06/27 06:08:37;;;;;;;10.57;9.73;;;;;;;;;;5028261;28;20037;-76
2022/06/27 06:11:03;;;;;;;10.88;10.00;;;;;;;;;;5029805;28;20034;-75
2022/06/27 06:13:29;;;;;;;14.40;9.80;;;;;;;;;;5027559;28;20030;-75
2022/06/27 06:15:58;;;;;;;10.18;9.45;;;;;;;;;;5024457;28;20065;-75
2022/06/27 06:18:27;;;;;;;11.02;10.13;;;;;;;;;;5028598;28;20116;-76
2022/06/27 06:20:52;;;;;;;10.88;9.77;;;;;;;;;;5029729;28;20485;-75
2022/06/27 06:23:18;;;;;;;10.38;9.68;;;;;;;;;;5027064;28;20044;-75
2022/06/27 06:25:45;;;;;;;10.25;9.43;;;;;;;;;;5012153;28;20026;-75
2022/06/27 06:28:11;;;;;;;9.57;8.88;;;;;;;;;;5018517;28;20044;-75
2022/06/27 06:30:37;;;;;;;10.82;10.02;;;;;;;;;;5030768;28;20405;-75
2022/06/27 06:33:06;;;;;;;10.65;9.80;;;;;;;;;;5035388;28;20057;-75
2022/06/27 06:35:34;;;;;;;10.40;9.68;;;;;;;;;;5031428;28;20033;-75
2022/06/27 06:38:01;;;;;;;10.70;9.88;;;;;;;;;;5032228;28;20034;-75
2022/06/27 06:40:29;;;;;;;10.23;9.30;;;;;;;;;;5033278;28;20038;-75
2022/06/27 06:42:55;;;;;;;10.38;9.50;;;;;;;;;;5033460;28;20033;-75
2022/06/27 06:45:53;;;;;;;10.15;9.35;;;;;;;;;;5016984;28;20034;-75
2022/06/27 06:48:37;;;;;;;9.60;8.90;;;;;;;;;;5031429;28;20557;-75
2022/06/27 06:51:04;;;;;;;8.93;8.38;;;;;;;;;;5018676;28;20045;-75
2022/06/27 06:53:30;;;;;;;9.27;8.48;;;;;;;;;;5019061;28;20030;-75
2022/06/27 06:55:57;;;;;;;9.18;8.60;;;;;;;;;;5019364;28;20241;-74
2022/06/27 06:58:25;;;;;;;10.10;9.20;;;;;;;;;;5034146;28;20052;-75
2022/06/27 07:00:54;;;;;;;9.07;8.48;;;;;;;;;;5034281;28;20094;-75
2022/06/27 07:03:20;;;;;;;;;;;;;;;;;;5032195;28;20024;-74
2022/06/27 07:05:46;;;;;;;9.40;8.73;;;;;;;;;;5029401;28;19927;-75
2022/06/27 07:08:12;;;;;;;9.00;8.45;;;;;;;;;;5034674;28;20068;-75
2022/06/27 07:10:39;;;;;;;10.00;9.18;;;;;;;;;;5016061;28;20564;-75
2022/06/27 07:13:06;;;;;;;9.65;8.90;;;;;;;;;;5028215;28;20041;-75
2022/06/27 07:15:33;;;;;;;8.93;8.43;;;;;;;;;;5034201;28;20049;-76
2022/06/27 07:18:00;;;;;;;9.50;8.70;;;;;;;;;;5033869;28;20048;-75
2022/06/27 07:20:26;;;;;;;8.82;8.32;;;;;;;;;;5034094;28;20037;-75
2022/06/27 07:22:52;;;;;;;8.30;7.75;;;;;;;;;;5032157;28;20029;-76
2022/06/27 07:25:18;;;;;;;8.30;7.80;;;;;;;;;;5031613;28;20030;-76
2022/06/27 07:27:44;;;;;;;8.52;8.02;;;;;;;;;;5016457;28;20062;-76
2022/06/27 07:30:12;;;;;;;8.40;7.65;;;;;;;;;;5021636;28;20127;-76
2022/06/27 07:32:39;;;;;;;7.60;7.10;;;;;;;;;;5024497;28;20042;-76
2022/06/27 07:35:11;;;;;;;8.13;7.63;;;;;;;;;;5016461;28;20042;-75
2022/06/27 07:37:44;;;;;;;8.07;7.57;;;;;;;;;;5021572;28;20044;-75
2022/06/27 07:40:11;;;;;;;8.73;8.13;;;;;;;;;;5015451;28;20037;-74
2022/06/27 07:42:37;;;;;;;8.30;7.70;;;;;;;;;;5033560;28;20052;-75
2022/06/27 07:45:05;;;;;;;8.43;7.60;;;;;;;;;;5029419;28;20576;-76
2022/06/27 07:47:31;;;;;;;7.93;7.28;;;;;;;;;;5032810;28;20551;-76
2022/06/27 07:49:57;;;;;;;7.70;7.10;;;;;;;;;;5029653;28;20029;-75
2022/06/27 07:52:23;;;;;;;7.25;6.80;;;;;;;;;;5024505;28;20593;-75
2022/06/27 07:54:49;;;;;;;7.60;7.10;;;;;;;;;;5013085;28;20034;-76
2022/06/27 07:57:15;;;;;;;7.68;7.05;;;;;;;;;;5016701;28;20448;-76
2022/06/27 07:59:41;;;;;;;7.95;7.35;;;;;;;;;;5012209;28;20087;-75
2022/06/27 08:02:09;;;;;;;7.47;7.03;;;;;;;;;;5018439;28;20068;-76
2022/06/27 08:04:37;;;;;;;7.67;7.03;;;;;;;;;;5019702;28;20441;-75
2022/06/27 08:07:03;;;;;;;7.40;6.90;;;;;;;;;;5023185;28;20088;-76
2022/06/27 08:09:29;;;;;;;8.02;7.00;;;;;;;;;;5029801;28;20121;-75
2022/06/27 08:11:55;;;;;;;7.47;6.90;;;;;;;;;;5016772;28;20108;-74
2022/06/27 08:14:20;;;;;;;7.30;6.80;;;;;;;;;;5022701;28;20038;-73
2022/06/27 08:16:49;;;;;;;7.50;7.00;;;;;;;;;;5016260;28;20083;-75
2022/06/27 08:19:15;;;;;;;7.40;7.00;;;;;;;;;;5018461;28;20084;-75
2022/06/27 08:21:43;;;;;;;7.82;7.30;;;;;;;;;;5015897;28;20034;-75
2022/06/27 08:24:12;;;;;;;7.35;6.90;;;;;;;;;;5017383;28;20037;-75
2022/06/27 08:26:37;;;;;;;7.70;7.10;;;;;;;;;;5027371;28;20040;-75
2022/06/27 08:29:05;;;;;;;7.35;6.78;;;;;;;;;;5018521;28;20037;-75
2022/06/27 08:31:34;;;;;;;7.03;6.63;;;;;;;;;;5018591;28;20051;-75
2022/06/27 08:34:01;;;;;;;7.80;7.10;;;;;;;;;;5016046;28;20401;-76
2022/06/27 08:36:30;;;;;;;7.22;6.82;;;;;;;;;;5015756;28;20042;-76
2022/06/27 08:38:58;;;;;;;7.47;6.97;;;;;;;;;;5016396;28;20045;-76
2022/06/27 08:41:24;;;;;;;7.25;6.85;;;;;;;;;;5016969;28;20048;-75
2022/06/27 08:43:58;;;;;;;7.55;6.95;;;;;;;;;;5020366;28;20396;-75
2022/06/27 08:46:24;;;;;;;7.20;6.80;;;;;;;;;;5013968;28;20064;-76
2022/06/27 08:48:50;;;;;;;6.85;6.45;;;;;;;;;;5015128;28;20424;-75
2022/06/27 08:51:17;;;;;;;6.80;6.40;;;;;;;;;;5016697;28;20037;-76
2022/06/27 08:53:44;;;;;;;6.88;6.50;;;;;;;;;;5010575;28;20485;-76
2022/06/27 08:56:13;;;;;;;6.95;6.55;;;;;;;;;;5017529;28;20034;-77
2022/06/27 08:58:40;;;;;;;7.65;7.15;;;;;;;;;;5025916;28;20501;-77
2022/06/27 09:01:07;;;;;;;6.57;6.18;;;;;;;;;;5014257;28;20037;-76
2022/06/27 09:03:33;;;;;;;6.07;5.78;;;;;;;;;;5018045;28;20060;-77
2022/06/27 09:06:03;;;;;;;6.22;5.78;;;;;;;;;;5022419;28;20096;-77
2022/06/27 09:08:36;;;;;;;9.32;7.32;;;;;;;;;;5028604;28;20030;-77
2022/06/27 09:11:03;;;;;;;7.53;6.78;;;;;;;;;;5017742;28;20037;-77
2022/06/27 09:13:30;;;;;;;6.28;5.97;;;;;;;;;;5020038;28;20036;-77
2022/06/27 09:15:57;;;;;;;6.32;5.93;;;;;;;;;;5027086;28;20041;-77
2022/06/27 09:18:26;;;;;;;6.47;6.07;;;;;;;;;;5011795;28;20045;-77
2022/06/27 09:20:52;;;;;;;6.78;6.40;;;;;;;;;;5015045;28;20034;-77
2022/06/27 09:23:41;;;;;;;7.50;7.00;;;;;;;;;;5014177;28;20048;-77
2022/06/27 09:26:12;;;;;;;;;;;;;;;;;;5029240;28;20054;-77
2022/06/27 09:28:42;;;;;;;6.22;5.82;;;;;;;;;;5017210;28;20004;-76
2022/06/27 09:31:13;;;;;;;6.55;5.95;;;;;;;;;;5017252;28;20555;-76
2022/06/27 09:33:41;;;;;;;6.70;6.30;;;;;;;;;;5016010;28;20053;-76
2022/06/27 09:36:12;;;;;;;6.68;6.38;;;;;;;;;;5013660;28;20780;-76
2022/06/27 09:38:43;;;;;;;6.63;6.10;;;;;;;;;;5017010;28;20025;-76
2022/06/27 09:41:13;;;;;;;7.05;6.38;;;;;;;;;;5019222;28;20524;-77
2022/06/27 09:43:47;;;;;;;7.10;6.65;;;;;;;;;;5018704;28;20033;-76
2022/06/27 09:46:15;;;;;;;8.75;6.60;;;;;;;;;;5021614;28;20065;-77
2022/06/27 09:48:44;;;;;;;7.00;6.60;;;;;;;;;;5025762;28;20026;-77
2022/06/27 09:51:14;;;;;;;5.97;5.55;;;;;;;;;;5019645;28;20080;-77
2022/06/27 09:53:44;;;;;;;6.72;6.10;;;;;;;;;;5015937;28;20064;-77
2022/06/27 09:56:14;;;;;;;6.15;5.75;;;;;;;;;;5015333;28;20071;-77
2022/06/27 09:58:41;;;;;;;5.95;5.55;;;;;;;;;;5016644;28;20117;-77
2022/06/27 10:01:09;;;;;;;5.22;4.75;;;;;;;;;;5015746;28;20042;-77
2022/06/27 10:03:36;;;;;;;5.35;5.05;;;;;;;;;;5022249;28;20041;-76
2022/06/27 10:06:03;;;;;;;6.30;5.78;;;;;;;;;;5014789;28;20064;-77
2022/06/27 10:08:33;;;;;;;6.18;5.68;;;;;;;;;;5013972;28;20661;-77
2022/06/27 10:11:04;;;;;;;6.17;5.70;;;;;;;;;;5019945;28;20038;-77
2022/06/27 10:13:30;;;;;;;5.88;5.55;;;;;;;;;;5013289;28;20536;-77
2022/06/27 10:16:06;;;;;;;6.40;5.90;;;;;;;;;;5011083;28;20033;-77
2022/06/27 10:18:56;;;;;;;6.03;5.70;;;;;;;;;;5011373;28;20115;-77
2022/06/27 10:21:31;;;;;;;6.47;6.07;;;;;;;;;;5010534;28;20034;-77
2022/06/27 10:24:18;;;;;;;5.80;5.45;;;;;;;;;;5013531;28;20450;-76
2022/06/27 10:26:44;;;;;;;6.45;5.97;;;;;;;;;;5014483;28;20030;-76
2022/06/27 10:29:33;;;;;;;6.10;5.72;;;;;;;;;;5015513;28;20044;-76
2022/06/27 10:32:01;;;;;;;6.75;6.10;;;;;;;;;;5010415;28;20041;-76
2022/06/27 10:34:46;;;;;;;6.53;6.13;;;;;;;;;;5033744;28;20117;-76
2022/06/27 10:37:21;;;;;;;6.53;6.10;;;;;;;;;;5018333;28;20037;-76
2022/06/27 10:39:48;;;;;;;7.05;6.45;;;;;;;;;;5013026;28;20046;-76
2022/06/27 10:43:01;;;;;;;6.80;6.40;;;;;;;;;;5017985;28;20117;-76
2022/06/27 10:45:27;;;;;;;7.20;6.20;;;;;;;;;;5014778;28;20483;-75
2022/06/27 10:47:54;;;;;;;6.43;5.93;;;;;;;;;;5017468;28;20041;-75
2022/06/27 10:50:22;;;;;;;7.10;6.45;;;;;;;;;;5024655;28;20053;-75
2022/06/27 10:52:48;;;;;;;6.90;6.50;;;;;;;;;;5008614;28;20066;-75
2022/06/27 10:55:31;;;;;;;7.10;6.53;;;;;;;;;;5020146;28;20034;-75
2022/06/27 10:57:58;;;;;;;7.38;6.88;;;;;;;;;;5010784;28;20105;-75
2022/06/27 11:00:43;;;;;;;7.25;6.75;;;;;;;;;;5015111;28;20049;-75
2022/06/27 11:03:20;;;;;;;7.43;6.85;;;;;;;;;;5014079;28;20041;-75
2022/06/27 11:05:52;;;;;;;7.22;6.82;;;;;;;;;;5021176;28;20097;-75
2022/06/27 11:08:22;;;;;;;7.10;6.70;;;;;;;;;;5017672;28;20038;-75
2022/06/27 11:10:49;;;;;;;7.18;6.78;;;;;;;;;;5024554;28;20576;-75
2022/06/27 11:13:40;;;;;;;7.22;6.80;;;;;;;;;;5026509;28;20060;-75
2022/06/27 11:16:09;;;;;;;7.43;6.93;;;;;;;;;;5016611;28;20046;-75
2022/06/27 11:18:54;;;;;;;7.80;7.30;;;;;;;;;;5017784;28;20053;-75
2022/06/27 11:21:24;;;;;;;7.25;6.80;;;;;;;;;;5014848;28;20120;-74
2022/06/27 11:24:02;;;;;;;7.90;7.30;;;;;;;;;;5019701;28;20038;-74
2022/06/27 11:26:38;;;;;;;7.40;7.00;;;;;;;;;;5021763;28;20123;-73
2022/06/27 11:32:10;;;;;;;7.47;6.97;;;;;;;;;;5019684;28;20033;-73
2022/06/27 11:34:39;;;;;;;8.00;7.30;;;;;;;;;;5018397;28;20118;-74
2022/06/27 11:37:14;;;;;;;7.60;7.10;;;;;;;;;;5031687;28;20069;-74
2022/06/27 11:39:41;;;;;;;7.78;7.22;;;;;;;;;;5010442;28;20138;-74
2022/06/27 11:42:11;;;;;;;6.97;6.40;;;;;;;;;;5017367;28;20492;-76
2022/06/27 11:45:06;;;;;;;6.80;6.40;;;;;;;;;;5022366;28;20041;-75
2022/06/27 11:47:38;;;;;;;6.85;6.38;;;;;;;;;;5012281;28;20664;-75
2022/06/27 11:50:12;;;;;;;7.50;6.90;;;;;;;;;;5012270;28;20116;-74
2022/06/27 11:52:47;;;;;;;7.10;6.70;;;;;;;;;;5012669;28;20049;-74
2022/06/27 11:55:16;;;;;;;7.18;6.75;;;;;;;;;;5013894;28;20560;-75
2022/06/27 11:57:51;;;;;;;;;;;;;;;;;;5020508;28;20030;-74
2022/06/27 12:00:18;;;;;;;7.72;7.00;;;;;;;;;;5021645;28;19956;-74
2022/06/27 12:02:44;;;;;;;7.68;7.07;;;;;;;;;;5016857;28;20037;-74
2022/06/27 12:05:13;;;;;;;7.40;6.90;;;;;;;;;;5015442;28;20044;-74
2022/06/27 12:08:09;;;;;;;;;;;;;;;;;;5024102;28;20033;-74
2022/06/27 12:10:39;;;;;;;6.50;6.10;;;;;;;;;;4969578;28;19914;-74
2022/06/27 12:13:07;;;;;;;7.22;6.47;;;;;;;;;;4975459;28;20042;-74
2022/06/27 12:15:33;;;;;;;7.43;6.70;;;;;;;;;;4977165;28;20564;-74
2022/06/27 12:18:00;;;;;;;7.32;6.65;;;;;;;;;;4973501;28;20034;-74
2022/06/27 12:20:33;;;;;;;7.22;6.63;;;;;;;;;;4968154;28;20105;-74
2022/06/27 12:22:58;;;;;;;7.43;6.93;;;;;;;;;;4971790;28;20130;-74
2022/06/27 12:25:24;;;;;;;7.05;6.57;;;;;;;;;;4969658;28;20133;-74
2022/06/27 12:27:50;;;;;;;7.72;7.10;;;;;;;;;;4978136;28;20047;-74
2022/06/27 12:30:17;;;;;;;7.90;7.20;;;;;;;;;;4974788;28;20912;-74
2022/06/27 12:32:43;;;;;;;7.90;7.22;;;;;;;;;;4974549;28;20518;-74
2022/06/27 12:35:09;;;;;;;7.60;7.00;;;;;;;;;;4973404;28;20058;-74
2022/06/27 12:37:38;;;;;;;8.98;7.30;;;;;;;;;;4977163;28;20045;-73
2022/06/27 12:40:06;;;;;;;8.02;7.28;;;;;;;;;;4973627;28;20050;-73
2022/06/27 12:42:33;;;;;;;7.20;6.70;;;;;;;;;;4978875;28;20056;-74
2022/06/27 12:44:59;;;;;;;8.05;7.45;;;;;;;;;;4972779;28;20113;-74
2022/06/27 12:47:25;;;;;;;7.65;7.15;;;;;;;;;;4999848;28;20533;-74
2022/06/27 12:49:50;;;;;;;7.55;7.05;;;;;;;;;;5022951;28;20124;-74
2022/06/27 12:52:16;;;;;;;7.10;6.60;;;;;;;;;;5011414;28;20121;-74
2022/06/27 12:54:43;;;;;;;7.10;6.60;;;;;;;;;;5016020;28;20041;-75
2022/06/27 12:57:13;;;;;;;7.47;6.97;;;;;;;;;;5036020;28;20034;-75
2022/06/27 12:59:42;;;;;;;7.68;7.07;;;;;;;;;;5018215;28;20044;-75
2022/06/27 13:02:08;;;;;;;6.78;6.38;;;;;;;;;;5018867;28;20449;-74
2022/06/27 13:04:34;;;;;;;8.57;7.82;;;;;;;;;;5013723;28;20053;-74
2022/06/27 13:06:59;;;;;;;7.63;7.07;;;;;;;;;;5020254;28;20042;-74
2022/06/27 13:09:25;;;;;;;7.80;7.10;;;;;;;;;;5017137;28;20033;-75
2022/06/27 13:11:50;;;;;;;7.10;6.70;;;;;;;;;;5017751;28;20029;-75
2022/06/27 13:14:16;;;;;;;7.50;6.72;;;;;;;;;;5023559;28;20691;-75
2022/06/27 13:16:42;;;;;;;7.03;6.53;;;;;;;;;;5008545;28;20041;-75
2022/06/27 13:19:08;;;;;;;7.32;6.70;;;;;;;;;;5010561;28;20071;-75
2022/06/27 13:21:34;;;;;;;7.30;6.75;;;;;;;;;;5021066;28;20132;-75
2022/06/27 13:23:59;;;;;;;7.80;7.20;;;;;;;;;;5010758;28;20116;-75
2022/06/27 13:26:25;;;;;;;7.78;7.28;;;;;;;;;;5010430;28;20045;-75
2022/06/27 13:28:51;;;;;;;7.65;7.00;;;;;;;;;;5013900;28;20044;-74
2022/06/27 13:31:16;;;;;;;7.30;6.80;;;;;;;;;;5009844;28;20041;-75
2022/06/27 13:33:42;;;;;;;7.43;6.82;;;;;;;;;;5012989;28;20045;-76
2022/06/27 13:36:08;;;;;;;8.40;7.68;;;;;;;;;;5010953;28;20038;-74
2022/06/27 13:38:33;;;;;;;8.20;6.95;;;;;;;;;;5015953;28;20061;-75
2022/06/27 13:41:00;;;;;;;7.55;6.90;;;;;;;;;;5014417;28;20655;-74
2022/06/27 13:43:26;;;;;;;7.82;7.22;;;;;;;;;;5007615;28;20033;-75
2022/06/27 13:45:51;;;;;;;7.60;7.00;;;;;;;;;;5012900;28;20676;-75
2022/06/27 13:48:17;;;;;;;7.40;6.90;;;;;;;;;;5022122;28;20048;-74
2022/06/27 13:50:43;;;;;;;7.18;6.57;;;;;;;;;;5011193;28;20092;-74
2022/06/27 13:53:08;;;;;;;7.03;6.63;;;;;;;;;;5012825;28;20041;-74
2022/06/27 13:55:37;;;;;;;6.80;6.40;;;;;;;;;;5010068;28;20091;-75
2022/06/27 13:58:04;;;;;;;7.00;6.50;;;;;;;;;;5015066;28;20148;-74
2022/06/27 14:00:30;;;;;;;6.63;6.22;;;;;;;;;;5021694;28;20029;-75
2022/06/27 14:02:56;;;;;;;7.50;6.93;;;;;;;;;;5026320;28;20029;-74
2022/06/27 14:05:22;;;;;;;6.97;6.38;;;;;;;;;;5014986;28;20033;-75
2022/06/27 14:07:48;;;;;;;6.72;6.22;;;;;;;;;;5013266;28;20046;-75
2022/06/27 14:10:17;;;;;;;6.20;5.80;;;;;;;;;;5026098;28;20033;-75
2022/06/27 14:12:43;;;;;;;6.50;6.05;;;;;;;;;;5012193;28;20042;-74
2022/06/27 14:15:10;;;;;;;6.78;6.20;;;;;;;;;;5019670;28;20087;-75
2022/06/27 14:17:36;;;;;;;6.57;6.07;;;;;;;;;;5014889;28;20033;-74
2022/06/27 14:20:04;;;;;;;6.60;6.10;;;;;;;;;;5020788;28;20040;-75
2022/06/27 14:22:29;;;;;;;6.80;6.30;;;;;;;;;;5019774;28;20041;-74
2022/06/27 14:24:55;;;;;;;6.55;6.15;;;;;;;;;;5020261;28;20029;-74
2022/06/27 14:27:21;;;;;;;6.90;6.40;;;;;;;;;;5030564;28;20056;-74
2022/06/27 14:29:46;;;;;;;6.80;6.40;;;;;;;;;;5015540;28;20040;-74
2022/06/27 14:32:12;;;;;;;6.07;5.78;;;;;;;;;;5019193;28;20029;-74
2022/06/27 14:34:38;;;;;;;6.75;6.25;;;;;;;;;;5009117;28;20568;-76
2022/06/27 14:37:04;;;;;;;6.60;6.10;;;;;;;;;;5015872;28;20030;-75
2022/06/27 14:39:29;;;;;;;6.30;5.90;;;;;;;;;;5015088;28;20524;-75
2022/06/27 14:41:55;;;;;;;6.80;6.40;;;;;;;;;;5017411;28;20080;-75
2022/06/27 14:44:21;;;;;;;6.75;6.35;;;;;;;;;;5016442;28;20042;-75
2022/06/27 14:46:46;;;;;;;6.43;6.00;;;;;;;;;;5025720;28;20034;-75
2022/06/27 14:49:12;;;;;;;6.70;6.10;;;;;;;;;;5017763;28;20037;-75
2022/06/27 14:51:38;;;;;;;7.10;5.63;;;;;;;;;;5021648;28;20394;-75
2022/06/27 14:54:04;;;;;;;6.60;6.13;;;;;;;;;;5025635;28;20047;-75